createdAt,value
2023-02-16T00:00:00.979Z,1.6
2023-02-16T00:03:00.895Z,1.6
2023-02-16T00:06:00.927Z,1.6
2023-02-16T00:09:00.892Z,1.6
2023-02-16T00:12:00.909Z,1.6
2023-02-16T00:15:00.883Z,1.6
2023-02-16T00:18:00.888Z,1.6
2023-02-16T00:21:01.048Z,1.6
2023-02-16T00:24:00.877Z,1.6
2023-02-16T00:27:00.930Z,1.6
2023-02-16T00:30:01.037Z,1.6
2023-02-16T00:33:00.925Z,1.6
2023-02-16T00:36:01.305Z,1.6
2023-02-16T00:39:00.942Z,1.6
2023-02-16T00:42:01.092Z,1.6
2023-02-16T00:45:00.897Z,1.6
2023-02-16T00:48:00.839Z,1.6
2023-02-16T00:51:00.978Z,1.3
2023-02-16T00:54:00.854Z,1.3
2023-02-16T00:57:00.830Z,1.3
2023-02-16T01:00:00.923Z,1.3
2023-02-16T01:03:00.810Z,1.3
2023-02-16T01:06:00.856Z,1.3
2023-02-16T01:09:00.876Z,1.3
2023-02-16T01:12:00.860Z,1.3
2023-02-16T01:15:00.837Z,1.3
2023-02-16T01:18:00.900Z,1.3
2023-02-16T01:21:01.022Z,1.3
2023-02-16T01:24:00.884Z,1.3
2023-02-16T01:27:00.828Z,1.4
2023-02-16T01:30:01.009Z,1.4
2023-02-16T01:33:00.853Z,1.4
2023-02-16T01:36:00.843Z,1.4
2023-02-16T01:39:00.862Z,1.4
2023-02-16T01:42:00.804Z,1.4
2023-02-16T01:45:00.823Z,1.4
2023-02-16T01:48:00.815Z,1.4
2023-02-16T01:51:01.212Z,1.4
2023-02-16T01:54:00.857Z,1.4
2023-02-16T01:57:00.852Z,1.4
2023-02-16T02:00:00.920Z,1.4
2023-02-16T02:03:00.908Z,1.4
2023-02-16T02:06:00.834Z,1.5
2023-02-16T02:09:00.837Z,1.5
2023-02-16T02:12:00.832Z,1.5
2023-02-16T02:15:00.825Z,1.5
2023-02-16T02:18:00.830Z,1.5
2023-02-16T02:21:00.983Z,1.5
2023-02-16T02:24:00.864Z,1.5
2023-02-16T02:27:00.859Z,1.5
2023-02-16T02:30:00.952Z,1.5
2023-02-16T02:33:00.815Z,1.5
2023-02-16T02:36:00.825Z,1.5
2023-02-16T02:39:00.827Z,1.5
2023-02-16T02:42:00.847Z,1.5
2023-02-16T02:45:00.818Z,1.5
2023-02-16T02:48:00.880Z,1.5
2023-02-16T02:51:00.799Z,1.5
2023-02-16T02:54:00.840Z,1.5
2023-02-16T02:57:00.829Z,1.5
2023-02-16T03:00:00.909Z,1.5
2023-02-16T03:03:00.848Z,1.5
2023-02-16T03:06:00.831Z,1.5
2023-02-16T03:09:00.917Z,2
2023-02-16T03:12:00.883Z,2
2023-02-16T03:15:00.857Z,2
2023-02-16T03:18:00.847Z,2
2023-02-16T03:21:00.963Z,2
2023-02-16T03:24:00.852Z,2
2023-02-16T03:27:00.852Z,2
2023-02-16T03:30:00.925Z,2
2023-02-16T03:33:00.869Z,2
2023-02-16T03:36:00.846Z,2
2023-02-16T03:39:00.857Z,2
2023-02-16T03:42:00.838Z,2
2023-02-16T03:45:00.845Z,2
2023-02-16T03:48:00.861Z,2
2023-02-16T03:51:00.898Z,2
2023-02-16T03:54:00.822Z,2
2023-02-16T03:57:00.876Z,2
2023-02-16T04:00:00.877Z,2
2023-02-16T04:03:00.860Z,2
2023-02-16T04:06:00.903Z,2
2023-02-16T04:09:00.868Z,2
2023-02-16T04:12:00.846Z,2
2023-02-16T04:15:00.918Z,2
2023-02-16T04:18:00.912Z,2
2023-02-16T04:21:01.044Z,2
2023-02-16T04:24:00.923Z,2
2023-02-16T04:27:00.909Z,2
2023-02-16T04:30:01.105Z,2
2023-02-16T04:33:00.950Z,2
2023-02-16T04:36:00.972Z,2
2023-02-16T04:39:00.995Z,2
2023-02-16T04:42:00.936Z,2
2023-02-16T04:45:00.973Z,2
2023-02-16T04:48:00.946Z,2
2023-02-16T04:51:01.083Z,2
2023-02-16T04:54:00.929Z,2
2023-02-16T04:57:00.949Z,2
2023-02-16T05:00:01.011Z,2
2023-02-16T05:03:00.960Z,2
2023-02-16T05:06:00.989Z,2
2023-02-16T05:09:00.959Z,2
2023-02-16T05:12:00.971Z,2
2023-02-16T05:15:00.923Z,2
2023-02-16T05:18:00.964Z,2
2023-02-16T05:21:01.425Z,2
2023-02-16T05:24:00.929Z,2
2023-02-16T05:27:00.971Z,2
2023-02-16T05:30:01.113Z,2
2023-02-16T05:33:00.964Z,2
2023-02-16T05:36:00.968Z,2
2023-02-16T05:39:00.938Z,2
2023-02-16T05:42:00.951Z,1.9
2023-02-16T05:45:00.995Z,1.9
2023-02-16T05:48:00.958Z,1.9
2023-02-16T05:51:01.013Z,1.9
2023-02-16T05:54:01.005Z,1.9
2023-02-16T05:57:01.026Z,1.9
2023-02-16T06:00:01.145Z,1.9
2023-02-16T06:03:00.980Z,1.9
2023-02-16T06:06:00.924Z,1.9
2023-02-16T06:09:00.925Z,1.9
2023-02-16T06:12:00.940Z,1.9
2023-02-16T06:15:00.943Z,1.9
2023-02-16T06:18:00.954Z,1.9
2023-02-16T06:21:00.996Z,1.9
2023-02-16T06:24:00.939Z,1.9
2023-02-16T06:27:00.950Z,1.9
2023-02-16T06:30:01.371Z,1.9
2023-02-16T06:33:00.924Z,1.9
2023-02-16T06:36:00.956Z,1.9
2023-02-16T06:39:01.014Z,1.9
2023-02-16T06:42:01.028Z,1.9
2023-02-16T06:45:00.972Z,1.9
2023-02-16T06:48:00.985Z,1.9
2023-02-16T06:51:01.013Z,1.9
2023-02-16T06:54:01.025Z,1.9
2023-02-16T06:57:01.090Z,1.9
2023-02-16T07:00:01.066Z,1.9
2023-02-16T07:03:01.062Z,1.9
2023-02-16T07:06:01.004Z,1.9
2023-02-16T07:09:00.943Z,1.9
2023-02-16T07:12:00.980Z,1.9
2023-02-16T07:15:01.015Z,1.9
2023-02-16T07:18:01.001Z,1.9
2023-02-16T07:21:00.975Z,1.9
2023-02-16T07:24:01.026Z,1.9
2023-02-16T07:27:00.965Z,1.9
2023-02-16T07:30:01.096Z,1.9
2023-02-16T07:33:00.948Z,1.9
2023-02-16T07:36:00.985Z,1.9
2023-02-16T07:39:00.998Z,1.9
2023-02-16T07:42:01.013Z,1.9
2023-02-16T07:45:01.034Z,1.9
2023-02-16T07:48:00.991Z,2.4
2023-02-16T07:51:00.956Z,2.4
2023-02-16T07:54:01.129Z,2.4
2023-02-16T07:57:01.028Z,2.4
2023-02-16T08:00:01.703Z,2.4
2023-02-16T08:03:01.471Z,2.9
2023-02-16T08:06:00.949Z,2.9
2023-02-16T08:09:00.968Z,2.9
2023-02-16T08:12:00.995Z,2.9
2023-02-16T08:15:00.998Z,2.9
2023-02-16T08:18:00.986Z,2.9
2023-02-16T08:21:04.814Z,3.4
2023-02-16T08:24:01.049Z,3.4
2023-02-16T08:27:00.983Z,3.4
2023-02-16T08:30:01.162Z,3.4
2023-02-16T08:33:01.020Z,3.4
2023-02-16T08:36:00.987Z,3.4
2023-02-16T08:39:00.994Z,3.9
2023-02-16T08:42:00.991Z,3.9
2023-02-16T08:45:01.009Z,3.9
2023-02-16T08:48:00.956Z,3.9
2023-02-16T08:51:00.964Z,3.9
2023-02-16T08:54:00.988Z,4.4
2023-02-16T08:57:00.962Z,4.4
2023-02-16T09:00:01.070Z,4.4
2023-02-16T09:03:00.972Z,4.4
2023-02-16T09:06:00.994Z,4.9
2023-02-16T09:09:00.988Z,4.9
2023-02-16T09:12:00.969Z,4.9
2023-02-16T09:15:01.000Z,4.9
2023-02-16T09:18:01.002Z,4.9
2023-02-16T09:21:01.002Z,4.9
2023-02-16T09:24:00.974Z,4.9
2023-02-16T09:27:01.092Z,5.4
2023-02-16T09:30:01.254Z,5.4
2023-02-16T09:33:01.046Z,5.4
2023-02-16T09:36:01.152Z,5.4
2023-02-16T09:39:01.047Z,5.4
2023-02-16T09:42:01.051Z,5.4
2023-02-16T09:45:00.994Z,5.4
2023-02-16T09:48:00.962Z,5.4
2023-02-16T09:51:00.956Z,5.4
2023-02-16T09:54:01.032Z,5.9
2023-02-16T09:57:00.899Z,5.9
2023-02-16T10:00:01.417Z,5.9
2023-02-16T10:03:01.553Z,5.9
2023-02-16T10:06:01.588Z,6.3
2023-02-16T10:09:01.292Z,6.3
2023-02-16T10:12:01.415Z,6.3
2023-02-16T10:15:01.181Z,6.3
2023-02-16T10:18:01.311Z,6.3
2023-02-16T10:27:01.392Z,6.8
2023-02-16T10:30:01.234Z,6.8
2023-02-16T10:33:01.233Z,6.8
2023-02-16T10:36:01.210Z,6.8
2023-02-16T10:39:01.333Z,6.8
2023-02-16T10:42:01.239Z,6.8
2023-02-16T10:45:01.260Z,6.8
2023-02-16T10:48:01.223Z,7.3
2023-02-16T10:51:01.196Z,7.3
2023-02-16T10:54:01.173Z,7.3
2023-02-16T10:57:01.318Z,7.5
2023-02-16T11:00:01.306Z,7.5
2023-02-16T11:03:01.249Z,7.6
2023-02-16T11:06:01.275Z,7.6
2023-02-16T11:09:01.533Z,7.6
2023-02-16T11:12:01.169Z,7.6
2023-02-16T11:15:01.311Z,7.6
2023-02-16T11:18:01.243Z,8
2023-02-16T11:21:01.146Z,8
2023-02-16T11:24:01.202Z,8
2023-02-16T11:27:01.156Z,8
2023-02-16T11:30:01.238Z,8
2023-02-16T11:33:01.240Z,8
2023-02-16T11:36:01.132Z,8
2023-02-16T11:39:01.153Z,8
2023-02-16T11:42:01.186Z,8.5
2023-02-16T11:45:01.128Z,8.5
2023-02-16T11:48:01.175Z,8.5
2023-02-16T11:51:01.218Z,8.5
2023-02-16T11:54:01.150Z,8.5
2023-02-16T11:57:01.128Z,8.5
2023-02-16T12:00:01.231Z,8.5
2023-02-16T12:03:01.202Z,8.5
2023-02-16T12:06:01.191Z,8.5
2023-02-16T12:09:01.120Z,8.5
2023-02-16T12:12:01.259Z,8.5
2023-02-16T12:15:01.144Z,8.5
2023-02-16T12:18:01.137Z,8.5
2023-02-16T12:21:01.195Z,8.5
2023-02-16T12:24:01.136Z,8.5
2023-02-16T12:27:01.252Z,8.5
2023-02-16T12:30:01.383Z,8.5
2023-02-16T12:33:01.228Z,8.5
2023-02-16T12:36:01.111Z,8.5
2023-02-16T12:39:01.200Z,8.5
2023-02-16T12:42:01.268Z,8.5
2023-02-16T12:45:01.214Z,8.5
2023-02-16T12:48:01.215Z,8.5
2023-02-16T12:51:01.088Z,8.5
2023-02-16T12:54:01.180Z,8.5
2023-02-16T12:57:01.159Z,8.5
2023-02-16T13:00:01.322Z,8.5
2023-02-16T13:03:01.894Z,8.5
2023-02-16T13:06:01.161Z,8.5
2023-02-16T13:09:01.280Z,8.5
2023-02-16T13:12:02.668Z,9
2023-02-16T13:15:01.165Z,9
2023-02-16T13:18:01.193Z,9
2023-02-16T13:21:01.197Z,9
2023-02-16T13:24:01.202Z,9
2023-02-16T13:27:01.243Z,9
2023-02-16T13:30:01.348Z,9
2023-02-16T13:33:01.229Z,9
2023-02-16T13:36:01.174Z,8.8
2023-02-16T13:39:01.434Z,8.8
2023-02-16T13:42:01.189Z,8.8
2023-02-16T13:45:01.175Z,8.8
2023-02-16T13:48:01.181Z,8.8
2023-02-16T13:51:01.289Z,8.9
2023-02-16T13:54:01.195Z,8.9
2023-02-16T13:57:01.214Z,8.9
2023-02-16T14:00:01.322Z,8.9
2023-02-16T14:03:01.364Z,8.9
2023-02-16T14:06:01.215Z,8.9
2023-02-16T14:09:01.274Z,8.9
2023-02-16T14:12:01.179Z,8.9
2023-02-16T14:15:01.235Z,8.9
2023-02-16T14:18:01.127Z,8.9
2023-02-16T14:21:01.209Z,8.9
2023-02-16T14:24:01.258Z,8.9
2023-02-16T14:27:01.223Z,8.9
2023-02-16T14:30:01.264Z,8.9
2023-02-16T14:33:01.212Z,8.9
2023-02-16T14:36:01.145Z,8.9
2023-02-16T14:39:01.195Z,8.9
2023-02-16T14:42:01.142Z,8.9
2023-02-16T14:45:01.142Z,9.2
2023-02-16T14:48:01.123Z,9.2
2023-02-16T14:51:01.156Z,9.2
2023-02-16T14:54:01.108Z,9.2
2023-02-16T14:57:01.202Z,9.1
2023-02-16T15:00:01.352Z,9.1
2023-02-16T15:03:01.148Z,9.1
2023-02-16T15:06:01.324Z,9.1
2023-02-16T15:09:01.083Z,9.1
2023-02-16T15:12:01.155Z,9.1
2023-02-16T15:15:01.193Z,9.1
2023-02-16T15:18:01.151Z,9.1
2023-02-16T15:21:01.145Z,9.1
2023-02-16T15:24:01.167Z,9.1
2023-02-16T15:27:01.128Z,9.1
2023-02-16T15:30:01.536Z,9.1
2023-02-16T15:33:01.224Z,9.1
2023-02-16T15:36:01.210Z,9.1
2023-02-16T15:39:01.172Z,9.1
2023-02-16T15:42:01.145Z,9.1
2023-02-16T15:45:01.157Z,9.1
2023-02-16T15:48:01.196Z,9.1
2023-02-16T15:51:01.154Z,9.1
2023-02-16T15:54:01.256Z,9.1
2023-02-16T15:57:01.224Z,9.1
2023-02-16T16:00:01.199Z,9.1
2023-02-16T16:03:01.336Z,8.9
2023-02-16T16:06:01.127Z,8.9
2023-02-16T16:09:01.157Z,8.9
2023-02-16T16:12:01.197Z,8.9
2023-02-16T16:15:01.181Z,8.9
2023-02-16T16:18:01.198Z,8.9
2023-02-16T16:21:01.282Z,8.9
2023-02-16T16:24:01.228Z,8.9
2023-02-16T16:27:01.219Z,8.9
2023-02-16T16:30:01.251Z,8.9
2023-02-16T16:33:01.180Z,8.9
2023-02-16T16:36:01.182Z,8.9
2023-02-16T16:39:01.106Z,8.9
2023-02-16T16:42:01.196Z,8.9
2023-02-16T16:45:01.324Z,8.9
2023-02-16T16:48:01.142Z,8.9
2023-02-16T16:51:01.107Z,8.9
2023-02-16T16:54:01.127Z,8.9
2023-02-16T16:57:01.174Z,8.9
2023-02-16T17:00:01.182Z,8.9
2023-02-16T17:03:01.138Z,8.9
2023-02-16T17:06:01.102Z,8.6
2023-02-16T17:09:01.089Z,8.6
2023-02-16T17:12:01.221Z,8.6
2023-02-16T17:15:01.090Z,8.6
2023-02-16T17:18:01.151Z,8.6
2023-02-16T17:21:01.195Z,8.6
2023-02-16T17:24:01.164Z,8.6
2023-02-16T17:27:01.102Z,8.6
2023-02-16T17:30:01.294Z,8.6
2023-02-16T17:33:01.109Z,8.6
2023-02-16T17:36:01.120Z,8.6
2023-02-16T17:39:01.121Z,8.6
2023-02-16T17:42:01.098Z,8.6
2023-02-16T17:45:01.120Z,8.6
2023-02-16T17:48:01.115Z,8.6
2023-02-16T17:51:01.072Z,8.6
2023-02-16T17:54:01.129Z,8.6
2023-02-16T17:57:01.083Z,8.6
2023-02-16T18:00:01.070Z,8.6
2023-02-16T18:03:01.209Z,8.6
2023-02-16T18:06:01.072Z,8.6
2023-02-16T18:09:01.090Z,8.6
2023-02-16T18:12:01.121Z,8.6
2023-02-16T18:15:01.119Z,8.4
2023-02-16T18:18:01.177Z,8.4
2023-02-16T18:21:01.108Z,8.4
2023-02-16T18:24:01.071Z,8.4
2023-02-16T18:27:01.072Z,8.4
2023-02-16T18:30:01.258Z,8.4
2023-02-16T18:33:01.130Z,8.4
2023-02-16T18:36:01.122Z,8.4
2023-02-16T18:39:01.121Z,8.4
2023-02-16T18:42:01.157Z,8.4
2023-02-16T18:45:01.162Z,8.4
2023-02-16T18:48:01.122Z,8.4
2023-02-16T18:51:01.113Z,8.4
2023-02-16T18:54:01.137Z,8.4
2023-02-16T18:57:01.071Z,8.4
2023-02-16T19:00:01.097Z,8.4
2023-02-16T19:03:01.139Z,8.4
2023-02-16T19:06:01.108Z,8.4
2023-02-16T19:09:01.116Z,8.4
2023-02-16T19:12:01.057Z,8.4
2023-02-16T19:15:01.133Z,8.4
2023-02-16T19:18:01.179Z,8.3
2023-02-16T19:21:01.156Z,8.3
2023-02-16T19:24:01.124Z,8.3
2023-02-16T19:27:01.110Z,8.3
2023-02-16T19:30:01.194Z,8.3
2023-02-16T19:33:01.169Z,8.3
2023-02-16T19:36:01.150Z,8.3
2023-02-16T19:39:01.192Z,8.3
2023-02-16T19:42:01.089Z,8.3
2023-02-16T19:45:01.099Z,8.3
2023-02-16T19:48:01.084Z,8.3
2023-02-16T19:51:01.105Z,8.3
2023-02-16T19:54:01.209Z,8.3
2023-02-16T19:57:01.079Z,8.3
2023-02-16T20:00:01.136Z,8.3
2023-02-16T20:03:01.338Z,8.3
2023-02-16T20:06:01.066Z,8.3
2023-02-16T20:09:01.106Z,8.3
2023-02-16T20:12:01.088Z,8.3
2023-02-16T20:15:01.124Z,8.3
2023-02-16T20:18:01.165Z,8.3
2023-02-16T20:21:01.182Z,8.3
2023-02-16T20:24:01.116Z,8.3
2023-02-16T20:27:01.118Z,8.3
2023-02-16T20:30:01.152Z,8.3
2023-02-16T20:33:01.146Z,8.3
2023-02-16T20:36:01.076Z,8.3
2023-02-16T20:39:01.140Z,8.3
2023-02-16T20:42:01.093Z,8.3
2023-02-16T20:45:01.102Z,8.3
2023-02-16T20:48:01.087Z,8.3
2023-02-16T20:51:01.125Z,8.3
2023-02-16T20:54:01.132Z,8.3
2023-02-16T20:57:01.102Z,8.3
2023-02-16T21:00:01.105Z,8.2
2023-02-16T21:03:01.186Z,8.2
2023-02-16T21:06:01.058Z,8.2
2023-02-16T21:09:01.144Z,8.2
2023-02-16T21:12:01.105Z,8.2
2023-02-16T21:15:01.099Z,8.2
2023-02-16T21:18:01.136Z,8.2
2023-02-16T21:21:01.108Z,8.2
2023-02-16T21:24:01.058Z,8.2
2023-02-16T21:27:01.146Z,8.2
2023-02-16T21:30:01.174Z,8.2
2023-02-16T21:33:01.143Z,8.2
2023-02-16T21:36:01.088Z,8.2
2023-02-16T21:39:02.774Z,8
2023-02-16T21:42:01.143Z,8
2023-02-16T21:45:01.268Z,8
2023-02-16T21:48:01.138Z,8
2023-02-16T21:51:01.122Z,8
2023-02-16T21:54:01.268Z,8
2023-02-16T21:57:01.092Z,8
2023-02-16T22:00:01.120Z,8
2023-02-16T22:03:01.130Z,8
2023-02-16T22:06:01.162Z,8
2023-02-16T22:09:01.089Z,8
2023-02-16T22:12:01.138Z,8.2
2023-02-16T22:15:01.337Z,8.2
2023-02-16T22:18:01.166Z,8.2
2023-02-16T22:21:01.092Z,8.2
2023-02-16T22:24:01.104Z,8.2
2023-02-16T22:27:01.180Z,8.2
2023-02-16T22:30:01.237Z,8.2
2023-02-16T22:33:01.142Z,8.2
2023-02-16T22:36:01.081Z,8.2
2023-02-16T22:39:01.120Z,8.2
2023-02-16T22:42:01.100Z,8.2
2023-02-16T22:45:01.188Z,8.2
2023-02-16T22:48:01.174Z,8.2
2023-02-16T22:51:01.196Z,8.2
2023-02-16T22:54:01.138Z,8.2
2023-02-16T22:57:01.186Z,8.2
2023-02-16T23:00:01.885Z,8.2
2023-02-16T23:03:01.173Z,8.2
2023-02-16T23:06:01.080Z,8.3
2023-02-16T23:09:01.121Z,8.3
2023-02-16T23:12:01.180Z,8.3
2023-02-16T23:15:01.157Z,8.3
2023-02-16T23:18:01.161Z,8.3
2023-02-16T23:21:01.134Z,8.3
2023-02-16T23:24:01.135Z,8.3
2023-02-16T23:27:01.134Z,8.3
2023-02-16T23:30:01.188Z,8.3
2023-02-16T23:33:01.132Z,8.2
2023-02-16T23:36:01.101Z,8.2
2023-02-16T23:39:01.187Z,8.2
2023-02-16T23:42:01.109Z,8.2
2023-02-16T23:45:01.142Z,8.2
2023-02-16T23:48:01.161Z,8.2
2023-02-16T23:51:01.159Z,8.2
2023-02-16T23:54:01.114Z,8.2
2023-02-16T23:57:01.094Z,8.2
